Time;durP1;ratioP1;P1;durP2;ratioP2;P2;SDS_P1;SDS_P2;PMS_P1;PMS_P2;Temp;Humidity;BMP_temperature;BMP_pressure;BME280_temperature;BME280_humidity;BME280_pressure;Samples;Min_cycle;Max_cycle;Signal;HPM_P1;HPM_P2
2022/11/03 00:01:45;;;;;;;7.65;2.60;;;12.60;99.90;;;;;;5000554;28;95849;-76
2022/11/03 00:04:14;;;;;;;7.50;1.80;;;12.70;99.90;;;;;;5032566;28;98265;-77
2022/11/03 00:06:42;;;;;;;7.00;2.20;;;12.60;99.90;;;;;;5032910;28;93151;-77
2022/11/03 00:09:11;;;;;;;10.57;2.20;;;12.60;99.90;;;;;;5015967;28;92522;-76
2022/11/03 00:11:40;;;;;;;7.45;1.98;;;12.60;99.90;;;;;;5017059;28;93343;-77
2022/11/03 00:14:08;;;;;;;8.98;2.38;;;12.60;99.90;;;;;;5015791;28;95521;-76
2022/11/03 00:16:36;;;;;;;6.75;2.13;;;12.60;99.90;;;;;;5017506;28;91644;-76
2022/11/03 00:19:04;;;;;;;11.10;2.67;;;12.70;99.90;;;;;;5017263;28;92456;-77
2022/11/03 00:21:32;;;;;;;8.82;2.08;;;12.70;99.90;;;;;;5016969;28;92973;-77
2022/11/03 00:24:01;;;;;;;9.00;2.28;;;12.80;99.90;;;;;;5014453;28;95676;-77
2022/11/03 00:26:30;;;;;;;9.02;2.13;;;12.80;99.90;;;;;;5017267;28;92320;-76
2022/11/03 00:29:00;;;;;;;7.57;2.25;;;12.80;99.90;;;;;;5015615;28;92550;-77
2022/11/03 00:31:29;;;;;;;9.93;2.03;;;12.70;99.90;;;;;;5015561;28;95769;-76
2022/11/03 00:33:57;;;;;;;7.72;2.35;;;12.80;99.90;;;;;;5015275;28;95741;-77
2022/11/03 00:36:29;;;;;;;13.65;2.63;;;12.80;99.90;;;;;;5017119;28;92440;-77
2022/11/03 00:38:56;;;;;;;7.13;2.08;;;12.80;99.90;;;;;;5017063;28;92433;-77
2022/11/03 00:41:24;;;;;;;8.60;2.03;;;12.80;99.90;;;;;;5015554;28;92542;-77
2022/11/03 00:43:52;;;;;;;6.88;2.03;;;12.70;99.90;;;;;;5014997;28;94573;-76
2022/11/03 00:46:20;;;;;;;10.35;2.05;;;12.80;99.90;;;;;;5015734;28;92674;-77
2022/11/03 00:48:47;;;;;;;10.77;3.13;;;12.70;99.90;;;;;;5014213;28;94948;-77
2022/11/03 00:51:15;;;;;;;8.70;2.17;;;12.70;99.90;;;;;;5032185;28;95865;-77
2022/11/03 00:53:49;;;;;;;11.55;2.00;;;12.70;99.90;;;;;;5016383;28;93061;-77
2022/11/03 00:56:17;;;;;;;9.65;3.20;;;12.70;99.90;;;;;;5016803;28;92351;-76
2022/11/03 00:58:44;;;;;;;10.77;2.20;;;12.60;99.90;;;;;;5016133;28;99128;-77
2022/11/03 01:01:13;;;;;;;9.65;2.33;;;12.60;99.90;;;;;;5016519;28;92460;-76
2022/11/03 01:06:48;;;;;;;8.52;1.95;;;12.60;99.90;;;;;;5016130;28;93046;-77
2022/11/03 01:06:49;;;;;;;10.13;2.38;;;12.50;99.90;;;;;;5015749;28;91660;-77
2022/11/03 01:09:17;;;;;;;8.70;2.47;;;12.50;99.90;;;;;;5015671;28;92516;-77
2022/11/03 01:12:06;;;;;;;11.10;2.50;;;12.50;99.90;;;;;;5031605;28;92692;-77
2022/11/03 01:14:36;;;;;;;11.82;2.78;;;12.50;99.90;;;;;;5015322;28;94765;-77
2022/11/03 01:17:07;;;;;;;7.60;2.05;;;12.40;99.90;;;;;;5016335;28;92926;-77
2022/11/03 01:19:34;;;;;;;8.07;2.65;;;12.40;99.90;;;;;;5016390;28;92744;-77
2022/11/03 01:22:02;;;;;;;9.65;2.30;;;12.40;99.90;;;;;;5013354;28;110104;-76
2022/11/03 01:24:30;;;;;;;8.98;2.17;;;12.30;99.90;;;;;;5031428;28;95365;-77
2022/11/03 01:26:57;;;;;;;8.82;2.45;;;12.30;99.90;;;;;;5016314;28;92370;-76
2022/11/03 01:29:24;;;;;;;10.52;2.55;;;12.30;99.90;;;;;;5014974;28;92599;-77
2022/11/03 01:31:51;;;;;;;10.73;2.22;;;12.30;99.90;;;;;;5014700;28;95019;-76
2022/11/03 01:34:20;;;;;;;7.10;2.10;;;12.30;99.90;;;;;;5016253;28;93060;-77
2022/11/03 01:36:47;;;;;;;9.15;2.33;;;12.30;99.90;;;;;;5016010;28;92745;-77
2022/11/03 01:39:16;;;;;;;7.90;2.10;;;12.30;99.90;;;;;;5013814;28;94869;-76
2022/11/03 01:41:45;;;;;;;6.63;2.03;;;12.30;99.90;;;;;;5014759;28;98076;-77
2022/11/03 01:44:12;;;;;;;9.10;2.78;;;12.30;99.90;;;;;;5015607;28;92742;-76
2022/11/03 01:46:58;;;;;;;11.25;2.13;;;12.20;99.90;;;;;;5016102;28;92344;-77
2022/11/03 01:49:31;;;;;;;7.47;2.05;;;12.20;99.90;;;;;;5014632;28;92579;-77
2022/11/03 01:52:20;;;;;;;12.32;3.00;;;12.20;99.90;;;;;;5015778;28;93009;-76
2022/11/03 01:54:52;;;;;;;10.77;2.28;;;12.20;99.90;;;;;;5014585;28;92658;-77
2022/11/03 01:57:26;;;;;;;11.80;2.85;;;12.10;99.90;;;;;;5016337;28;91626;-76
2022/11/03 01:59:56;;;;;;;9.63;3.05;;;12.10;99.90;;;;;;5015946;28;92365;-77
2022/11/03 02:02:26;;;;;;;7.47;2.38;;;12.00;99.90;;;;;;5030917;28;95934;-76
2022/11/03 02:04:54;;;;;;;8.98;1.90;;;12.00;99.90;;;;;;5014134;28;94814;-76
2022/11/03 02:07:47;;;;;;;11.38;2.42;;;11.90;99.90;;;;;;5014319;28;92600;-77
2022/11/03 02:10:14;;;;;;;8.05;2.15;;;11.80;99.90;;;;;;5014455;28;92617;-77
2022/11/03 02:12:42;;;;;;;12.75;2.72;;;11.80;99.90;;;;;;4997556;28;96004;-77
2022/11/03 02:15:13;;;;;;;8.15;2.35;;;11.80;99.90;;;;;;5015215;28;93083;-77
2022/11/03 02:17:42;;;;;;;11.27;3.03;;;11.70;99.90;;;;;;5015531;28;92496;-77
2022/11/03 02:20:15;;;;;;;10.80;2.50;;;11.70;99.90;;;;;;5014062;28;92476;-77
2022/11/03 02:23:01;;;;;;;7.28;2.40;;;11.70;99.90;;;;;;5014607;28;92347;-77
2022/11/03 02:25:47;;;;;;;11.85;2.75;;;11.70;99.90;;;;;;5014196;28;94856;-76
2022/11/03 02:28:26;;;;;;;7.50;2.58;;;11.70;99.90;;;;;;5031046;28;92512;-76
2022/11/03 02:31:14;;;;;;;9.70;2.45;;;11.60;99.90;;;;;;5014266;28;94790;-77
2022/11/03 02:33:56;;;;;;;9.00;2.53;;;11.60;99.90;;;;;;5018626;28;93272;-77
2022/11/03 02:36:39;;;;;;;8.10;2.05;;;11.60;99.90;;;;;;5018852;28;93235;-76
2022/11/03 02:39:15;;;;;;;10.23;3.10;;;11.60;99.90;;;;;;5017368;28;92423;-76
2022/11/03 02:41:44;;;;;;;6.50;2.30;;;11.50;99.90;;;;;;5017259;28;92500;-76
2022/11/03 02:44:17;;;;;;;6.47;2.53;;;11.50;99.90;;;;;;5018410;28;93316;-76
2022/11/03 02:46:50;;;;;;;8.38;2.47;;;11.50;99.90;;;;;;5017512;28;92862;-76
2022/11/03 02:49:17;;;;;;;6.68;2.55;;;11.50;99.90;;;;;;5019468;28;91581;-77
2022/11/03 02:51:44;;;;;;;9.07;2.40;;;11.50;99.90;;;;;;5017703;28;92524;-76
2022/11/03 02:54:41;;;;;;;9.18;2.63;;;11.50;99.90;;;;;;5017025;28;93604;-77
2022/11/03 02:57:23;;;;;;;8.15;2.72;;;11.50;99.90;;;;;;5024232;28;94941;-77
2022/11/03 03:00:06;;;;;;;4.57;2.00;;;11.50;99.90;;;;;;5034067;28;92525;-76
2022/11/03 03:02:46;;;;;;;12.15;2.47;;;11.50;99.90;;;;;;5017101;28;92486;-76
2022/11/03 03:05:15;;;;;;;13.85;2.95;;;11.50;99.90;;;;;;5018306;28;93289;-76
2022/11/03 03:07:47;;;;;;;9.52;3.22;;;11.50;99.90;;;;;;5017211;28;93223;-76
2022/11/03 03:10:20;;;;;;;6.25;2.45;;;11.60;99.90;;;;;;5033923;28;92435;-77
2022/11/03 03:12:51;;;;;;;8.15;2.20;;;11.50;99.90;;;;;;5018628;28;92401;-77
2022/11/03 03:15:25;;;;;;;8.38;2.38;;;11.50;99.90;;;;;;5018907;28;93517;-76
2022/11/03 03:18:03;;;;;;;11.25;3.20;;;11.50;99.90;;;;;;5016537;28;95022;-76
2022/11/03 03:20:44;;;;;;;5.97;2.42;;;11.50;99.90;;;;;;5018550;28;92355;-76
2022/11/03 03:23:30;;;;;;;10.95;2.40;;;11.60;99.90;;;;;;5015569;28;95293;-77
2022/11/03 03:26:27;;;;;;;8.82;2.85;;;11.50;99.90;;;;;;5017995;28;93108;-76
2022/11/03 03:29:02;;;;;;;10.32;2.58;;;11.50;99.90;;;;;;5016907;28;95502;-77
2022/11/03 03:31:35;;;;;;;9.07;2.80;;;11.50;99.90;;;;;;5033691;28;92930;-76
2022/11/03 03:34:04;;;;;;;7.88;2.53;;;11.50;99.90;;;;;;5016883;28;92491;-77
2022/11/03 03:36:50;;;;;;;9.30;2.88;;;11.50;99.90;;;;;;5018053;28;93320;-77
2022/11/03 03:39:18;;;;;;;7.38;2.25;;;11.50;99.90;;;;;;5016328;28;94285;-76
2022/11/03 03:41:47;;;;;;;12.20;2.30;;;11.40;99.90;;;;;;5016478;28;91661;-76
2022/11/03 03:44:16;;;;;;;9.35;2.08;;;11.50;99.90;;;;;;5016897;28;92496;-77
2022/11/03 03:46:59;;;;;;;8.00;2.25;;;11.50;99.90;;;;;;4999881;28;95113;-76
2022/11/03 03:49:26;;;;;;;11.02;2.40;;;11.50;99.90;;;;;;5016601;28;94809;-77
2022/11/03 03:51:54;;;;;;;7.00;2.33;;;11.50;99.90;;;;;;5033188;28;92495;-77
2022/11/03 03:54:20;;;;;;;8.43;2.97;;;11.50;99.90;;;;;;5016322;28;92532;-77
2022/11/03 03:56:52;;;;;;;9.63;2.85;;;11.50;99.90;;;;;;5016240;28;95771;-77
2022/11/03 03:59:19;;;;;;;7.22;2.33;;;11.50;99.90;;;;;;5017676;28;92831;-76
2022/11/03 04:01:46;;;;;;;9.45;2.72;;;11.40;99.90;;;;;;4999078;28;101197;-76
2022/11/03 04:04:13;;;;;;;6.20;2.38;;;11.40;99.90;;;;;;5016231;28;92547;-76
2022/11/03 04:06:40;;;;;;;9.98;2.65;;;11.40;99.90;;;;;;4999807;28;97898;-76
2022/11/03 04:09:07;;;;;;;11.07;2.63;;;11.40;99.90;;;;;;5017193;28;92467;-76
2022/11/03 04:23:08;;;;;;;5.97;1.92;;;11.30;99.90;;;;;;4974688;28;92728;-76
2022/11/03 04:25:35;;;;;;;7.60;2.67;;;11.20;99.90;;;;;;4974927;28;100352;-77
2022/11/03 04:28:12;;;;;;;7.38;2.15;;;11.20;99.90;;;;;;4993770;28;95962;-77
2022/11/03 04:30:39;;;;;;;8.63;2.22;;;11.30;99.90;;;;;;5017119;28;93068;-76
2022/11/03 04:33:14;;;;;;;8.35;2.40;;;11.20;99.90;;;;;;5016159;28;91704;-76
2022/11/03 04:35:45;;;;;;;8.52;2.63;;;11.20;99.90;;;;;;5015642;28;92408;-77
2022/11/03 04:38:12;;;;;;;6.47;2.33;;;11.20;99.90;;;;;;5016574;28;93075;-77
2022/11/03 04:40:44;;;;;;;6.38;2.60;;;11.20;99.90;;;;;;5014176;28;94845;-77
2022/11/03 04:43:16;;;;;;;7.68;2.20;;;11.20;99.90;;;;;;5016935;28;92436;-77
2022/11/03 04:45:45;;;;;;;10.52;3.40;;;11.20;99.90;;;;;;5015849;28;92456;-77
2022/11/03 04:48:14;;;;;;;9.38;2.50;;;11.20;99.90;;;;;;5016501;28;93973;-77
2022/11/03 04:50:42;;;;;;;6.38;2.80;;;11.20;99.90;;;;;;5016750;28;92991;-76
2022/11/03 04:53:15;;;;;;;8.90;2.25;;;11.20;99.90;;;;;;5031915;28;92569;-77
2022/11/03 04:55:44;;;;;;;8.30;2.40;;;11.20;99.90;;;;;;5014173;28;92562;-76
2022/11/03 04:58:25;;;;;;;6.60;2.03;;;11.20;99.90;;;;;;5016843;28;92560;-77
2022/11/03 05:00:55;;;;;;;7.07;2.20;;;11.20;99.90;;;;;;5016890;28;92687;-76
2022/11/03 05:03:26;;;;;;;13.82;3.08;;;11.10;99.90;;;;;;5015160;28;92956;-76
2022/11/03 05:05:53;;;;;;;10.43;2.42;;;11.10;99.90;;;;;;5014454;28;95269;-77
2022/11/03 05:08:21;;;;;;;5.60;2.28;;;11.10;99.90;;;;;;5014989;28;93330;-77
2022/11/03 05:10:48;;;;;;;8.32;2.58;;;11.10;99.90;;;;;;5014969;28;95740;-76
2022/11/03 05:13:27;;;;;;;7.50;2.10;;;11.20;99.90;;;;;;5016550;28;92948;-77
2022/11/03 05:16:01;;;;;;;7.70;1.98;;;11.20;99.90;;;;;;5016461;28;92567;-77
2022/11/03 05:18:32;;;;;;;6.47;2.22;;;11.20;99.90;;;;;;5016360;28;93104;-77
2022/11/03 05:21:02;;;;;;;10.45;2.50;;;11.30;99.90;;;;;;5016295;28;93438;-77
2022/11/03 05:23:35;;;;;;;12.70;2.90;;;11.30;99.90;;;;;;5016772;28;91661;-76
2022/11/03 05:26:06;;;;;;;11.77;2.92;;;11.30;99.90;;;;;;5016566;28;92340;-76
2022/11/03 05:28:36;;;;;;;6.93;2.55;;;11.30;99.90;;;;;;5016030;28;93291;-76
2022/11/03 05:31:28;;;;;;;7.53;2.35;;;11.30;99.90;;;;;;5013947;28;94833;-77
2022/11/03 05:34:01;;;;;;;7.55;2.05;;;11.30;99.90;;;;;;5032037;28;92515;-77
2022/11/03 05:36:29;;;;;;;9.90;2.60;;;11.30;99.90;;;;;;5031434;28;92560;-76
2022/11/03 05:39:23;;;;;;;8.27;2.45;;;11.30;99.90;;;;;;5015861;28;92999;-77
2022/11/03 05:41:50;;;;;;;7.57;2.78;;;11.40;99.90;;;;;;5014745;28;93009;-76
2022/11/03 05:44:44;;;;;;;8.75;2.65;;;11.30;99.90;;;;;;5014459;28;92608;-77
2022/11/03 05:47:21;;;;;;;6.80;2.00;;;11.40;99.90;;;;;;5029049;28;93131;-76
2022/11/03 05:49:51;;;;;;;7.90;2.40;;;11.30;99.90;;;;;;5016318;28;92458;-76
2022/11/03 05:52:28;;;;;;;10.68;2.70;;;11.20;99.90;;;;;;5015468;28;93259;-76
2022/11/03 05:54:57;;;;;;;8.80;3.22;;;11.40;99.90;;;;;;5014957;28;92538;-77
2022/11/03 05:57:28;;;;;;;10.80;3.03;;;11.30;99.90;;;;;;5013097;28;94819;-77
2022/11/03 05:59:55;;;;;;;8.57;2.63;;;11.30;99.90;;;;;;5014768;28;93230;-77
2022/11/03 06:02:34;;;;;;;12.75;2.72;;;11.30;99.90;;;;;;5013739;28;104814;-77
2022/11/03 06:05:23;;;;;;;12.88;3.30;;;11.30;99.90;;;;;;5015925;28;93801;-76
2022/11/03 06:07:53;;;;;;;6.75;2.58;;;11.30;99.90;;;;;;5030724;28;92463;-77
2022/11/03 06:10:55;;;;;;;10.02;2.92;;;11.30;99.90;;;;;;5013893;28;95579;-76
2022/11/03 06:13:29;;;;;;;8.98;3.00;;;11.30;99.90;;;;;;5020259;28;93044;-77
2022/11/03 06:15:58;;;;;;;;;;;11.20;99.90;;;;;;5016676;28;91744;-77
2022/11/03 06:18:30;;;;;;;7.85;2.53;;;11.10;99.90;;;;;;5016509;28;92441;-77
2022/11/03 06:21:02;;;;;;;8.10;2.55;;;11.10;99.90;;;;;;5015549;28;93426;-76
2022/11/03 06:23:32;;;;;;;6.80;2.15;;;11.10;99.90;;;;;;5012445;28;95657;-77
2022/11/03 06:26:01;;;;;;;8.43;2.35;;;11.10;99.90;;;;;;5031215;28;92424;-77
2022/11/03 06:28:36;;;;;;;7.05;2.58;;;11.10;99.90;;;;;;5013924;28;93001;-77
2022/11/03 06:31:23;;;;;;;9.60;2.65;;;11.20;99.90;;;;;;5015630;28;93307;-77
2022/11/03 06:33:51;;;;;;;10.85;2.15;;;11.10;99.90;;;;;;5030523;28;92965;-77
2022/11/03 06:36:22;;;;;;;10.63;2.50;;;11.00;99.90;;;;;;5015192;28;92432;-77
2022/11/03 06:38:55;;;;;;;10.88;3.38;;;11.10;99.90;;;;;;5015596;28;92547;-77
2022/11/03 06:41:25;;;;;;;11.75;3.22;;;11.10;99.90;;;;;;5015017;28;92607;-77
2022/11/03 06:43:52;;;;;;;7.90;2.53;;;11.10;99.90;;;;;;5014955;28;92467;-77
2022/11/03 06:46:24;;;;;;;10.30;2.35;;;11.10;99.90;;;;;;5013968;28;92934;-77
2022/11/03 06:48:59;;;;;;;10.23;2.35;;;11.10;99.90;;;;;;5029405;28;94903;-77
2022/11/03 06:51:28;;;;;;;6.35;2.42;;;11.10;99.90;;;;;;5030575;28;93172;-77
2022/11/03 06:53:58;;;;;;;10.05;2.60;;;11.10;99.90;;;;;;5013771;28;95394;-77
2022/11/03 06:56:30;;;;;;;6.63;2.63;;;11.20;99.90;;;;;;5030380;28;92486;-77
2022/11/03 06:58:57;;;;;;;8.85;2.75;;;11.20;99.90;;;;;;5013830;28;92455;-76
2022/11/03 07:01:29;;;;;;;9.20;3.05;;;11.20;99.90;;;;;;5012706;28;109436;-77
2022/11/03 07:04:00;;;;;;;6.47;2.25;;;11.30;99.90;;;;;;5015029;28;93007;-76
2022/11/03 07:06:35;;;;;;;8.30;2.83;;;11.20;99.90;;;;;;5015541;28;91733;-77
2022/11/03 07:09:05;;;;;;;6.60;2.90;;;11.30;99.90;;;;;;5013552;28;92552;-76
2022/11/03 07:11:44;;;;;;;9.57;2.33;;;11.30;99.90;;;;;;5014470;28;93330;-77
2022/11/03 07:14:15;;;;;;;7.53;2.83;;;11.40;99.90;;;;;;5029304;28;94887;-77
2022/11/03 07:16:45;;;;;;;8.63;2.80;;;11.30;99.90;;;;;;5014549;28;92359;-77
2022/11/03 07:19:25;;;;;;;7.95;2.70;;;11.30;99.90;;;;;;5015830;28;92410;-77
2022/11/03 07:22:08;;;;;;;8.55;2.78;;;11.40;99.90;;;;;;5018290;28;92966;-76
2022/11/03 07:24:44;;;;;;;8.80;2.97;;;11.50;99.90;;;;;;5033175;28;94062;-77
2022/11/03 07:27:29;;;;;;;8.63;2.75;;;11.50;99.90;;;;;;5033674;28;92861;-77
2022/11/03 07:30:04;;;;;;;10.00;2.78;;;11.60;99.90;;;;;;5017877;28;92345;-76
2022/11/03 07:32:33;;;;;;;8.45;2.30;;;11.60;99.90;;;;;;5033532;28;94725;-77
2022/11/03 07:35:20;;;;;;;10.95;3.13;;;11.70;99.90;;;;;;5017796;28;92482;-77
2022/11/03 07:37:50;;;;;;;9.82;2.15;;;11.80;99.90;;;;;;5010722;28;92420;-77
2022/11/03 07:40:23;;;;;;;8.25;2.40;;;11.80;99.90;;;;;;5016949;28;94939;-77
2022/11/03 07:42:51;;;;;;;6.53;2.50;;;12.00;99.90;;;;;;5017417;28;95194;-76
2022/11/03 07:45:38;;;;;;;8.18;2.42;;;12.00;99.90;;;;;;5016067;28;95687;-77
2022/11/03 07:48:24;;;;;;;8.07;2.80;;;12.10;99.90;;;;;;5018056;28;92428;-77
2022/11/03 07:50:57;;;;;;;12.10;2.95;;;12.10;99.90;;;;;;5033058;28;92489;-77
2022/11/03 07:53:35;;;;;;;9.25;3.00;;;12.20;99.90;;;;;;5032971;28;94325;-76
2022/11/03 07:56:20;;;;;;;9.25;2.33;;;12.20;99.90;;;;;;5016289;28;95508;-77
2022/11/03 07:59:07;;;;;;;10.07;2.75;;;12.30;99.90;;;;;;5018241;28;91717;-77
2022/11/03 08:01:40;;;;;;;8.30;2.40;;;12.30;99.90;;;;;;5016508;28;92556;-77
2022/11/03 08:04:15;;;;;;;6.55;3.08;;;12.30;99.90;;;;;;5016184;28;96403;-76
2022/11/03 08:06:43;;;;;;;6.40;2.70;;;12.40;99.90;;;;;;5016270;28;94908;-77
2022/11/03 08:09:10;;;;;;;8.63;2.78;;;12.40;99.90;;;;;;5017907;28;92920;-77
2022/11/03 08:11:37;;;;;;;9.07;3.08;;;12.50;99.90;;;;;;5015840;28;92427;-76
2022/11/03 08:14:04;;;;;;;7.57;3.22;;;12.60;99.90;;;;;;5015955;28;95663;-77
2022/11/03 08:16:31;;;;;;;10.25;2.72;;;12.70;99.90;;;;;;5016005;28;92508;-77
2022/11/03 08:18:58;;;;;;;8.85;2.70;;;12.70;99.90;;;;;;5015901;28;100357;-76
2022/11/03 08:21:24;;;;;;;7.60;2.85;;;12.80;99.90;;;;;;5017418;28;92483;-77
2022/11/03 08:23:51;;;;;;;9.32;3.33;;;12.80;99.90;;;;;;5032670;28;95095;-77
2022/11/03 08:26:19;;;;;;;7.32;2.50;;;12.90;99.90;;;;;;5016875;28;92442;-76
2022/11/03 08:28:46;;;;;;;7.88;2.47;;;12.90;99.90;;;;;;5017209;28;92620;-77
2022/11/03 08:31:13;;;;;;;9.00;2.45;;;13.00;99.90;;;;;;5014865;28;94883;-77
2022/11/03 08:33:40;;;;;;;6.68;2.30;;;13.10;99.90;;;;;;5015228;28;95995;-77
2022/11/03 08:36:08;;;;;;;13.05;2.92;;;13.20;99.90;;;;;;5015587;28;95716;-76
2022/11/03 08:38:35;;;;;;;8.15;2.70;;;13.30;99.90;;;;;;5016971;28;92442;-76
2022/11/03 08:41:03;;;;;;;11.07;3.50;;;13.40;99.90;;;;;;5016672;28;92473;-76
2022/11/03 08:43:30;;;;;;;10.80;3.60;;;13.40;99.90;;;;;;5015638;28;95662;-77
2022/11/03 08:45:57;;;;;;;9.05;2.60;;;13.50;99.90;;;;;;5016452;28;92965;-76
2022/11/03 08:48:28;;;;;;;8.43;2.88;;;13.50;99.90;;;;;;5017608;28;91650;-77
2022/11/03 08:50:55;;;;;;;10.40;2.95;;;13.60;99.90;;;;;;5016683;28;92437;-77
2022/11/03 08:53:26;;;;;;;10.57;2.97;;;13.60;99.90;;;;;;5016538;28;93388;-76
2022/11/03 08:55:53;;;;;;;8.35;2.35;;;13.70;99.90;;;;;;5014009;28;94942;-77
2022/11/03 08:58:21;;;;;;;7.13;2.78;;;13.70;99.90;;;;;;5015687;28;92435;-76
2022/11/03 09:00:49;;;;;;;9.38;3.55;;;13.70;99.90;;;;;;5031998;28;92809;-77
2022/11/03 09:03:16;;;;;;;10.45;3.22;;;13.80;99.90;;;;;;5016685;28;93036;-77
2022/11/03 09:05:43;;;;;;;7.28;2.67;;;13.90;99.90;;;;;;5016082;28;93072;-77
2022/11/03 09:08:10;;;;;;;8.57;2.72;;;14.00;99.90;;;;;;5015458;28;92457;-77
2022/11/03 09:10:57;;;;;;;5.15;2.58;;;14.20;99.90;;;;;;5015601;28;92423;-77
2022/11/03 09:13:24;;;;;;;7.68;2.92;;;14.20;99.90;;;;;;5015701;28;92616;-77
2022/11/03 09:15:51;;;;;;;10.63;3.53;;;14.40;99.90;;;;;;5016159;28;92455;-77
2022/11/03 09:18:18;;;;;;;7.28;2.67;;;14.50;99.90;;;;;;5014905;28;92626;-77
2022/11/03 09:20:45;;;;;;;6.68;3.03;;;14.50;99.90;;;;;;5015137;28;94708;-77
2022/11/03 09:23:12;;;;;;;10.05;2.85;;;14.70;99.90;;;;;;5014956;28;95893;-82
2022/11/03 09:25:39;;;;;;;9.27;3.33;;;14.70;99.90;;;;;;5016075;28;92936;-73
2022/11/03 09:28:06;;;;;;;8.35;3.00;;;14.80;99.90;;;;;;5031747;28;92502;-74
2022/11/03 09:30:33;;;;;;;7.90;2.58;;;14.90;99.90;;;;;;5016463;28;92447;-74
2022/11/03 09:33:00;;;;;;;7.68;3.05;;;14.90;99.90;;;;;;5015991;28;93250;-74
2022/11/03 09:35:27;;;;;;;5.28;2.83;;;15.10;99.90;;;;;;5014841;28;96042;-74
2022/11/03 09:37:54;;;;;;;6.40;2.67;;;15.10;99.90;;;;;;5016542;28;91700;-74
2022/11/03 09:40:21;;;;;;;6.43;2.60;;;15.20;99.90;;;;;;5015012;28;92503;-74
2022/11/03 09:42:48;;;;;;;9.07;3.25;;;15.20;99.90;;;;;;5013459;28;93320;-74
2022/11/03 09:45:14;;;;;;;10.07;3.05;;;15.40;99.90;;;;;;5013161;28;96948;-74
2022/11/03 09:47:45;;;;;;;9.75;2.80;;;15.40;99.90;;;;;;5016074;28;92339;-74
2022/11/03 09:50:16;;;;;;;10.05;2.95;;;15.50;99.90;;;;;;5016226;28;92427;-74
2022/11/03 09:52:43;;;;;;;8.45;2.55;;;15.60;99.90;;;;;;5031416;28;93120;-74
2022/11/03 09:55:20;;;;;;;6.07;2.17;;;15.70;99.90;;;;;;5014797;28;93162;-73
2022/11/03 09:57:48;;;;;;;6.90;2.63;;;15.70;99.90;;;;;;5030930;28;92637;-73
2022/11/03 10:00:18;;;;;;;8.13;2.92;;;15.90;99.90;;;;;;5015779;28;92494;-74
2022/11/03 10:02:46;;;;;;;9.20;2.70;;;16.00;99.90;;;;;;5016281;28;92507;-74
2022/11/03 10:05:19;;;;;;;8.75;3.72;;;16.10;99.90;;;;;;5015644;28;92479;-74
2022/11/03 10:07:46;;;;;;;7.23;2.80;;;16.30;99.90;;;;;;5016053;28;92919;-74
2022/11/03 10:10:19;;;;;;;7.78;2.90;;;16.30;99.90;;;;;;5013380;28;94949;-74
2022/11/03 10:12:48;;;;;;;7.70;3.40;;;16.50;99.90;;;;;;5015709;28;93154;-74
2022/11/03 10:15:17;;;;;;;9.77;3.55;;;16.60;99.90;;;;;;4997625;28;95650;-74
2022/11/03 10:17:45;;;;;;;10.35;3.00;;;16.60;99.90;;;;;;5015617;28;92497;-74
2022/11/03 10:20:14;;;;;;;10.07;2.90;;;16.60;99.90;;;;;;5015438;28;92484;-74
2022/11/03 10:22:43;;;;;;;10.45;3.20;;;16.60;99.90;;;;;;5015258;28;92404;-74
2022/11/03 10:25:34;;;;;;;8.95;3.63;;;16.50;99.90;;;;;;5012819;28;112123;-74
2022/11/03 10:28:21;;;;;;;5.20;2.85;;;16.40;99.90;;;;;;5031244;28;91653;-74
2022/11/03 10:31:01;;;;;;;9.68;2.63;;;16.40;99.90;;;;;;5014487;28;92364;-74
2022/11/03 10:33:54;;;;;;;8.40;3.28;;;16.40;99.90;;;;;;5015373;28;93205;-74
2022/11/03 10:36:25;;;;;;;8.52;2.55;;;16.50;99.90;;;;;;5012535;28;95254;-74
2022/11/03 10:38:52;;;;;;;7.43;2.42;;;16.50;99.90;;;;;;5015494;28;92365;-74
2022/11/03 10:41:21;;;;;;;6.45;2.03;;;16.60;99.90;;;;;;5014784;28;92459;-74
2022/11/03 10:44:09;;;;;;;10.20;2.75;;;16.70;99.90;;;;;;5014866;28;93253;-74
2022/11/03 10:46:37;;;;;;;9.45;2.50;;;16.90;99.90;;;;;;5030287;28;95936;-74
2022/11/03 10:49:18;;;;;;;6.45;3.08;;;16.80;99.90;;;;;;5014246;28;92501;-74
2022/11/03 10:51:51;;;;;;;6.90;2.33;;;17.00;99.90;;;;;;5015428;28;92835;-74
2022/11/03 10:54:23;;;;;;;7.00;2.33;;;16.90;99.90;;;;;;5016426;28;92387;-74
2022/11/03 10:56:51;;;;;;;6.22;2.63;;;16.90;99.90;;;;;;5017144;28;94876;-74
2022/11/03 10:59:23;;;;;;;10.05;2.80;;;17.00;99.90;;;;;;5017367;28;92516;-74
2022/11/03 11:01:50;;;;;;;9.77;2.58;;;17.00;99.90;;;;;;5017537;28;94812;-74
2022/11/03 11:04:19;;;;;;;7.40;3.35;;;17.00;99.90;;;;;;5018289;28;93336;-74
2022/11/03 11:06:46;;;;;;;5.60;2.75;;;17.10;99.90;;;;;;5017871;28;93187;-73
2022/11/03 11:09:21;;;;;;;6.20;2.38;;;17.20;99.90;;;;;;5016492;28;92377;-73
2022/11/03 11:12:18;;;;;;;8.23;2.40;;;17.10;99.90;;;;;;5018316;28;92465;-73
2022/11/03 11:15:00;;;;;;;9.68;2.78;;;17.10;99.90;;;;;;5016679;28;95711;-73
2022/11/03 11:17:46;;;;;;;5.60;2.30;;;17.00;99.90;;;;;;5017923;28;93006;-73
2022/11/03 11:20:20;;;;;;;8.05;2.40;;;17.10;99.90;;;;;;5017406;28;92228;-73
2022/11/03 11:22:48;;;;;;;;;;;17.10;99.90;;;;;;5018647;28;92349;-73
2022/11/03 11:25:17;;;;;;;6.67;1.90;;;17.10;99.90;;;;;;5034230;28;92552;-74
2022/11/03 11:27:44;;;;;;;8.85;3.03;;;17.20;99.90;;;;;;5015255;28;95410;-74
2022/11/03 11:30:19;;;;;;;4.57;2.03;;;17.20;99.90;;;;;;5017958;28;92401;-74
2022/11/03 11:33:00;;;;;;;7.60;2.30;;;17.20;99.90;;;;;;5018097;28;92456;-73
2022/11/03 11:35:26;;;;;;;6.53;2.40;;;17.20;99.90;;;;;;5017922;28;93235;-74
2022/11/03 11:37:53;;;;;;;6.85;2.50;;;17.10;99.90;;;;;;5016219;28;95452;-73
2022/11/03 11:40:23;;;;;;;7.45;2.00;;;17.20;99.90;;;;;;4999943;28;92417;-74
2022/11/03 11:43:03;;;;;;;6.43;2.15;;;17.20;99.90;;;;;;5016691;28;93126;-74
2022/11/03 11:46:07;;;;;;;5.28;1.90;;;17.30;99.90;;;;;;5018238;28;92493;-73
2022/11/03 11:48:35;;;;;;;6.25;3.08;;;17.30;99.90;;;;;;5016188;28;95306;-74
2022/11/03 11:51:03;;;;;;;5.82;2.28;;;17.20;99.90;;;;;;4999690;28;92436;-74
2022/11/03 11:53:38;;;;;;;6.60;2.15;;;17.10;99.90;;;;;;5015494;28;94923;-74
2022/11/03 11:56:12;;;;;;;5.72;1.75;;;17.10;99.90;;;;;;5032970;28;92537;-74
2022/11/03 11:58:56;;;;;;;5.80;2.33;;;17.00;99.90;;;;;;5032992;28;95463;-74
2022/11/03 12:01:29;;;;;;;7.00;2.30;;;17.00;99.90;;;;;;5016164;28;92404;-74
2022/11/03 12:04:00;;;;;;;5.70;2.13;;;17.00;99.90;;;;;;5018079;28;92853;-73
2022/11/03 12:06:37;;;;;;;8.18;2.63;;;17.00;99.90;;;;;;5017262;28;93344;-74
2022/11/03 12:09:11;;;;;;;5.82;1.90;;;17.10;99.90;;;;;;5015787;28;95596;-74
2022/11/03 12:11:47;;;;;;;4.75;2.13;;;17.10;99.90;;;;;;5018169;28;91660;-74
2022/11/03 12:14:27;;;;;;;6.35;2.20;;;17.20;99.90;;;;;;5017473;28;92437;-74
2022/11/03 12:17:18;;;;;;;5.68;2.05;;;17.10;99.90;;;;;;5015954;28;95928;-73
2022/11/03 12:19:45;;;;;;;4.10;2.17;;;17.10;99.90;;;;;;4981666;28;94904;-74
2022/11/03 12:22:39;;;;;;;5.45;1.85;;;17.00;99.90;;;;;;5016940;28;96536;-74
2022/11/03 12:25:33;;;;;;;6.50;2.63;;;17.00;99.80;;;;;;5015695;28;92418;-73
2022/11/03 12:28:00;;;;;;;5.80;2.08;;;17.10;99.90;;;;;;5017147;28;93255;-74
2022/11/03 12:30:27;;;;;;;5.75;2.75;;;17.00;99.90;;;;;;5015749;28;93551;-74
2022/11/03 12:32:54;;;;;;;6.68;2.20;;;17.00;99.90;;;;;;5016078;28;92463;-74
2022/11/03 12:35:21;;;;;;;6.03;2.45;;;16.90;99.90;;;;;;5015884;28;93121;-73
2022/11/03 12:37:48;;;;;;;8.18;2.17;;;16.90;99.90;;;;;;5015869;28;95007;-73
2022/11/03 12:40:15;;;;;;;8.23;1.90;;;16.80;99.90;;;;;;5016502;28;94949;-74
2022/11/03 12:42:42;;;;;;;7.65;2.58;;;16.80;99.90;;;;;;5015658;28;92995;-73
2022/11/03 12:45:09;;;;;;;9.82;2.33;;;16.80;99.90;;;;;;5015775;28;94835;-74
2022/11/03 12:47:36;;;;;;;5.53;2.15;;;16.80;99.90;;;;;;5016245;28;105825;-74
2022/11/03 12:50:03;;;;;;;11.93;2.75;;;16.70;99.90;;;;;;5021922;28;92491;-72
2022/11/03 12:52:30;;;;;;;8.50;2.10;;;16.70;99.90;;;;;;5032004;27;92691;-76
2022/11/03 12:54:57;;;;;;;6.07;2.45;;;16.60;99.90;;;;;;5032041;28;92476;-73
2022/11/03 12:57:24;;;;;;;4.55;1.95;;;16.60;99.90;;;;;;5015080;28;93101;-73
2022/11/03 12:59:51;;;;;;;5.82;2.33;;;16.50;99.90;;;;;;5016284;28;93341;-72
2022/11/03 13:02:18;;;;;;;9.30;3.13;;;16.50;99.90;;;;;;5032095;28;91830;-77
2022/11/03 13:04:45;;;;;;;10.23;2.58;;;16.50;99.90;;;;;;5016311;28;92729;-79
2022/11/03 13:07:12;;;;;;;4.88;1.60;;;16.50;99.90;;;;;;5031332;28;96051;-74
2022/11/03 13:09:38;;;;;;;6.88;2.35;;;16.50;99.90;;;;;;5014964;28;94881;-74
2022/11/03 13:14:51;;;;;;;6.03;2.08;;;16.50;99.90;;;;;;5016824;28;92430;-74
2022/11/03 13:17:17;;;;;;;5.53;2.00;;;16.50;99.90;;;;;;5013587;28;95842;-74
2022/11/03 13:19:44;;;;;;;8.80;2.33;;;16.50;99.90;;;;;;5014890;28;100957;-74
2022/11/03 13:22:11;;;;;;;5.95;2.20;;;16.50;99.90;;;;;;5016551;28;92416;-74
2022/11/03 13:24:38;;;;;;;5.82;2.00;;;16.40;99.90;;;;;;4998452;28;92595;-74
2022/11/03 13:27:05;;;;;;;4.22;1.95;;;16.50;99.90;;;;;;5016458;28;92751;-74